Pilot Butte, Canada
Current Conditions -  °F | °C
As of 3:00 PM on Wednesday 17 Dec 2014 (Local Time) from CYQR Reporting Station
Overcast Overcast  
Wind Chill: -17°   Ceiling: 1100
Heat Index: -8°   Visibility: 15mi
Dew Point: -10°   Wind: 17mph
Humidity: 86%   Direction: 160°SSE
Pressure: 30.07"   Gusts: NA
Location:  50.48°N, 104.42°W
Report Text: CYQR 172100Z 16015KT 15SM OVC011 M08/M10 A3007 RMK SC8 SLP223
Loading
Personal Weather Stations






























Interactive Weather Map New forecast layout! Learn more

10-Day Weather Forecast

Advertisements
Track Severe Weather on mobile